Terminal Aerodrome Forecast
Issued by NWS Northern Indiana

Home | Current Version | Previous Version | Graphics & Text | Print | Product List | Glossary On
Versions: 1 2 3 4 5 6 7 8 9 10 11 12 13 14 15 16 17 18 19 20 21
000
FTUS43 KIWX 191700
TAFFWA
TAF
KFWA 191737Z 1918/2018 21012G18KT P6SM BKN035
     FM192100 23012KT P6SM VCTS BKN045CB
      TEMPO 1921/1923 4SM TSRA BKN030CB
     FM200200 22005KT P6SM BKN050
     FM200700 23005KT 4SM BR SCT025
     FM201400 27010KT P6SM SCT030=

USA.gov is the U.S. government's official web portal to all federal, state and local government web resources and services.